Airfield :
LOGIN :

Register | Disclaimer

   EN    FR    IT 

 










Legend :    VFR   Marginal VFR   IFR   Intensive IFR   Very Intensive IFR
Visi :
Ceiling :
>= 8 km
>= 3000ft
5 to 8 km
1000 to 3000 ft
1500m to 5 km
500 to 1000 ft
800 to 1500m
200 to 500 ft
< 800m
< 200 ft
Symbols :   Thunderstorms  Fog  Heavy snow  Heavy precipitations  Wind > 20 kt
SIGMETs :     Misc.  Thunderstorms  Icing  Turbulence  Mountain Waves  Volcanic Ashes







- Airport Elevation : 1197 ft
- IATA code : SPM


ETAD - Spangdahlem Ab

CURRENT METAR :
  • 182356Z AUTO 25003KT 9999 CLR 05/00 A3004 RMK AO2 SLP170 T00490001 10068 20049 56001 $

EXPIRED METARs :
  • 182256Z AUTO 25003KT 9999 CLR 06/00 A3004 RMK AO2 SLP170 T00550003 401211007 $
  • 182156Z AUTO 00000KT 9999 CLR 06/00 A3004 RMK AO2 SLP171 T00560002 $

TAF TAF ETAD
Valid from the 18 at 21:00 until the 20 at 03:00 UTC


182100Z 1821/2003 24006KT 9999 SCT200 QNH3004INS
BECMG 1901/1902 26009KT 9999 FEW020 SCT030 BKN040 QNH3008INS
TEMPO 1904/1909 27010G15KT 8000 -RA BR OVC010 620357
BECMG 1908/1909 27015G20KT 9999 SCT030 SCT150 QNH3015INS
BECMG 1916/1917 23009KT 9999 SCT030 SCT150 QNH3020INS TX09/1914Z TN02/2002Z LAST NO AMDS AFT 1821 NEXT 1905
No reported NOTAMs for that airfield.



MET'MAP, your aeronautical weather chart ! - Copyright ORBIFLY December 2007 - Disclaimer

ORBIFLY MET'MAP TEAM :

Programming & Development : Alexandra Zaïnal
Concept & Development : Baudouin d'Aumeries
Co-Development & Prog : Marc-Olivier Méhu
Technical & hardware support : Manuel Goepfert

Contact : metmap@orbifly.com




SOURCES & CREDITS :

   NOAA